Time;durP1;ratioP1;P1;durP2;ratioP2;P2;SDS_P1;SDS_P2;PMS_P1;PMS_P2;Temp;Humidity;BMP_temperature;BMP_pressure;BME280_temperature;BME280_humidity;BME280_pressure;Samples;Min_cycle;Max_cycle;Signal;HPM_P1;HPM_P2
2022/06/20 00:02:31;;;;;;;12.02;5.40;;;14.80;99.90;;;;;;5009898;28;20454;-83
2022/06/20 00:05:05;;;;;;;10.50;5.00;;;14.70;99.90;;;;;;5009549;28;20425;-84
2022/06/20 00:07:31;;;;;;;10.33;5.30;;;14.80;99.90;;;;;;5010252;28;20458;-82
2022/06/20 00:09:56;;;;;;;8.98;5.43;;;14.70;99.90;;;;;;5011449;28;20592;-84
2022/06/20 00:12:25;;;;;;;9.17;5.50;;;14.70;99.90;;;;;;5013182;28;20492;-85
2022/06/20 00:14:55;;;;;;;12.05;6.03;;;14.60;99.90;;;;;;5012626;28;20379;-83
2022/06/20 00:17:21;;;;;;;10.98;5.50;;;14.60;99.90;;;;;;5012347;28;20402;-85
2022/06/20 00:19:46;;;;;;;10.98;5.72;;;14.60;99.90;;;;;;5013820;28;20948;-85
2022/06/20 00:22:12;;;;;;;11.20;5.70;;;14.50;99.90;;;;;;5013305;28;20379;-85
2022/06/20 00:24:38;;;;;;;8.33;5.33;;;14.50;99.90;;;;;;5013507;28;20403;-82
2022/06/20 00:27:06;;;;;;;9.20;5.40;;;14.50;99.90;;;;;;5011886;28;20482;-82
2022/06/20 00:29:39;;;;;;;6.38;5.13;;;14.70;99.90;;;;;;5013749;28;20472;-82
2022/06/20 00:32:07;;;;;;;8.48;5.38;;;14.70;99.90;;;;;;5013066;28;20402;-84
2022/06/20 00:34:33;;;;;;;10.05;5.60;;;14.70;99.90;;;;;;5012229;28;20749;-85
2022/06/20 00:36:59;;;;;;;11.90;5.90;;;14.80;99.90;;;;;;5012405;28;20449;-84
2022/06/20 00:39:25;;;;;;;10.48;5.70;;;14.90;99.90;;;;;;5013288;28;20855;-85
2022/06/20 00:41:51;;;;;;;9.95;5.72;;;14.90;99.90;;;;;;5010755;28;20462;-84
2022/06/20 00:44:40;;;;;;;9.50;5.73;;;15.00;99.90;;;;;;5013027;28;20371;-85
2022/06/20 00:47:10;;;;;;;7.40;5.17;;;15.10;99.90;;;;;;5013144;28;20865;-82
2022/06/20 00:49:50;;;;;;;9.77;5.13;;;15.20;99.90;;;;;;5011406;28;20805;-87
2022/06/20 00:52:28;;;;;;;9.00;5.60;;;15.10;99.90;;;;;;5010594;28;20417;-86
2022/06/20 00:55:17;;;;;;;11.30;6.13;;;15.10;99.90;;;;;;5013163;28;20514;-87
2022/06/20 00:58:04;;;;;;;8.48;5.40;;;15.00;99.90;;;;;;5011292;28;20925;-83
2022/06/20 01:00:35;;;;;;;9.93;5.32;;;15.00;99.90;;;;;;5010821;28;20444;-84
2022/06/20 01:03:14;;;;;;;8.03;5.07;;;15.00;99.90;;;;;;5011726;28;20427;-84
2022/06/20 01:05:59;;;;;;;8.63;5.18;;;15.00;99.90;;;;;;5009136;28;20407;-86
2022/06/20 01:08:27;;;;;;;8.75;4.90;;;14.90;99.90;;;;;;5011232;28;20818;-87
2022/06/20 01:10:53;;;;;;;11.55;5.03;;;14.90;99.90;;;;;;5011161;28;20430;-83
2022/06/20 01:13:22;;;;;;;6.57;5.07;;;15.00;99.90;;;;;;5010658;28;20435;-83
2022/06/20 01:15:51;;;;;;;7.30;4.75;;;15.00;99.90;;;;;;5012289;28;20411;-82
2022/06/20 01:18:24;;;;;;;9.77;4.88;;;15.10;99.90;;;;;;5010746;28;20387;-83
2022/06/20 01:20:52;;;;;;;8.98;5.45;;;15.10;99.90;;;;;;5010383;28;20431;-86
2022/06/20 01:23:45;;;;;;;10.52;5.63;;;15.10;99.90;;;;;;5012474;28;20376;-85
2022/06/20 01:26:30;;;;;;;9.27;5.30;;;14.90;99.90;;;;;;5010946;28;20435;-83
2022/06/20 01:29:00;;;;;;;10.23;5.55;;;14.80;99.90;;;;;;5010301;28;20820;-85
2022/06/20 01:31:29;;;;;;;10.43;5.65;;;14.80;99.90;;;;;;5011900;28;20824;-86
2022/06/20 01:33:57;;;;;;;8.37;5.40;;;14.90;99.90;;;;;;5010555;28;20495;-88
2022/06/20 01:39:09;;;;;;;9.10;5.53;;;14.90;99.90;;;;;;5012664;28;20833;-89
2022/06/20 01:44:20;;;;;;;8.95;6.05;;;15.10;99.90;;;;;;5011571;28;20773;-85
2022/06/20 01:46:46;;;;;;;11.75;5.82;;;15.10;99.90;;;;;;5011828;28;20380;-85
2022/06/20 01:49:19;;;;;;;8.90;5.07;;;15.20;99.90;;;;;;5010724;28;20784;-82
2022/06/20 01:51:58;;;;;;;9.47;5.77;;;15.20;99.90;;;;;;5011593;28;20470;-83
2022/06/20 01:54:27;;;;;;;8.32;4.88;;;15.30;99.90;;;;;;5010076;28;20391;-85
2022/06/20 01:56:53;;;;;;;10.63;5.25;;;15.30;99.90;;;;;;5011806;28;20390;-85
2022/06/20 01:59:24;;;;;;;10.20;5.22;;;15.30;99.90;;;;;;5010541;28;20391;-87
2022/06/20 02:01:51;;;;;;;8.48;4.90;;;15.20;99.90;;;;;;5010391;28;20383;-84
2022/06/20 02:04:22;;;;;;;6.57;5.20;;;15.20;99.90;;;;;;5011129;28;20392;-87
2022/06/20 02:06:48;;;;;;;11.00;6.20;;;15.10;99.90;;;;;;5011616;28;20489;-86
2022/06/20 02:09:14;;;;;;;9.00;5.47;;;15.00;99.90;;;;;;5011920;28;20462;-90
2022/06/20 02:11:45;;;;;;;9.55;5.15;;;15.10;99.90;;;;;;5010374;28;20723;-87
2022/06/20 02:14:25;;;;;;;9.57;5.80;;;14.90;99.90;;;;;;5010474;28;20475;-87
2022/06/20 02:17:03;;;;;;;8.75;5.53;;;14.90;99.90;;;;;;5011006;28;20386;-89
2022/06/20 02:19:32;;;;;;;8.18;5.45;;;15.00;99.90;;;;;;5010563;28;20442;-87
2022/06/20 02:22:01;;;;;;;8.73;5.68;;;14.90;99.90;;;;;;5009725;28;20744;-89
2022/06/20 02:24:32;;;;;;;7.32;5.18;;;15.00;99.90;;;;;;5010534;28;20402;-88
2022/06/20 02:27:01;;;;;;;8.40;5.22;;;15.00;99.90;;;;;;5010591;28;20397;-88
2022/06/20 02:29:29;;;;;;;8.57;5.00;;;15.10;99.90;;;;;;5010073;28;20406;-89
2022/06/20 02:32:15;;;;;;;8.05;4.95;;;15.20;99.90;;;;;;5010281;28;20384;-88
2022/06/20 02:34:41;;;;;;;7.43;4.65;;;15.30;99.90;;;;;;5010447;28;20889;-90
2022/06/20 02:37:10;;;;;;;6.55;4.78;;;15.30;99.90;;;;;;5011561;28;20379;-89
2022/06/20 02:39:41;;;;;;;7.95;5.03;;;15.40;99.90;;;;;;5012328;28;20379;-89
2022/06/20 02:42:13;;;;;;;8.13;5.22;;;15.50;99.90;;;;;;5009823;28;20394;-87
2022/06/20 02:44:43;;;;;;;7.05;4.65;;;15.40;99.90;;;;;;5010592;28;20399;-89
2022/06/20 02:47:10;;;;;;;7.70;4.50;;;15.40;99.90;;;;;;5010430;28;20448;-89
2022/06/20 02:49:37;;;;;;;5.05;4.45;;;15.30;99.90;;;;;;5010066;28;20980;-89
2022/06/20 02:52:06;;;;;;;7.43;4.80;;;15.40;99.90;;;;;;5010018;28;20437;-89
2022/06/20 02:54:34;;;;;;;6.10;4.05;;;15.40;99.90;;;;;;5009848;28;20886;-85
2022/06/20 02:57:11;;;;;;;6.97;5.00;;;15.40;99.90;;;;;;5010023;28;20408;-87
2022/06/20 02:59:47;;;;;;;9.30;4.78;;;15.30;99.90;;;;;;5009832;28;20442;-86
2022/06/20 03:02:15;;;;;;;8.15;4.50;;;15.20;99.90;;;;;;5010104;28;20749;-84
2022/06/20 03:04:44;;;;;;;7.80;4.57;;;15.20;99.90;;;;;;5009901;28;20452;-89
2022/06/20 03:07:18;;;;;;;8.05;4.63;;;15.30;99.90;;;;;;5010267;28;20379;-84
2022/06/20 03:09:47;;;;;;;6.25;4.55;;;15.30;99.90;;;;;;5010022;28;20431;-88
2022/06/20 03:12:14;;;;;;;7.20;4.55;;;15.30;99.90;;;;;;5010120;28;20375;-88
2022/06/20 03:14:46;;;;;;;7.25;4.75;;;15.30;99.90;;;;;;5009458;28;20399;-88
2022/06/20 03:17:15;;;;;;;7.13;4.90;;;15.40;99.90;;;;;;5011079;28;20391;-86
2022/06/20 03:19:45;;;;;;;8.20;4.47;;;15.40;99.90;;;;;;5010329;28;20379;-88
2022/06/20 03:22:16;;;;;;;6.82;4.45;;;15.40;99.90;;;;;;5009641;28;20405;-89
2022/06/20 03:24:44;;;;;;;7.25;4.78;;;15.30;99.90;;;;;;5010924;28;20403;-89
2022/06/20 03:27:13;;;;;;;8.13;5.00;;;15.30;99.90;;;;;;5010053;28;20392;-86
2022/06/20 03:29:40;;;;;;;7.28;4.60;;;15.40;99.90;;;;;;5010179;28;20889;-89
2022/06/20 03:32:06;;;;;;;8.50;4.93;;;15.30;99.90;;;;;;5010688;28;20378;-89
2022/06/20 03:34:32;;;;;;;7.30;4.47;;;15.30;99.90;;;;;;5011727;28;20889;-86
2022/06/20 03:36:58;;;;;;;8.27;5.00;;;15.40;99.90;;;;;;5009555;28;20391;-87
2022/06/20 03:39:24;;;;;;;8.52;5.40;;;15.40;99.90;;;;;;5009508;28;20382;-88
2022/06/20 03:41:51;;;;;;;9.05;4.70;;;15.40;99.90;;;;;;5008740;28;20411;-85
2022/06/20 03:44:29;;;;;;;6.03;4.65;;;15.40;99.90;;;;;;5011593;28;20403;-89
2022/06/20 03:47:10;;;;;;;7.93;5.03;;;15.50;99.90;;;;;;5015719;28;20453;-84
2022/06/20 03:50:02;;;;;;;9.30;5.63;;;15.40;99.90;;;;;;5014203;28;20390;-86
2022/06/20 03:52:36;;;;;;;9.77;5.82;;;15.30;99.90;;;;;;5013484;28;20394;-87
2022/06/20 03:55:10;;;;;;;9.05;5.43;;;15.30;99.90;;;;;;5014299;28;20386;-85
2022/06/20 03:58:09;;;;;;;8.00;5.20;;;15.20;99.90;;;;;;5014304;28;20387;-86
2022/06/20 04:00:42;;;;;;;7.88;5.60;;;15.10;99.90;;;;;;5007123;28;20405;-90
2022/06/20 04:03:31;;;;;;;8.20;5.68;;;15.10;99.90;;;;;;5013808;28;20398;-85
2022/06/20 04:06:04;;;;;;;7.50;5.60;;;15.20;99.90;;;;;;4993202;28;20411;-91
2022/06/20 04:11:42;;;;;;;7.72;5.40;;;15.20;99.90;;;;;;5014259;28;20418;-89
2022/06/20 04:14:22;;;;;;;8.15;5.47;;;15.30;99.90;;;;;;5012763;28;20410;-85
2022/06/20 04:20:00;;;;;;;8.80;5.90;;;15.50;99.90;;;;;;5013150;28;20406;-88
2022/06/20 04:22:32;;;;;;;12.82;6.10;;;15.50;99.90;;;;;;5012401;28;20422;-86
2022/06/20 04:25:05;;;;;;;9.27;5.80;;;15.60;99.90;;;;;;5012768;28;20521;-87
2022/06/20 04:27:48;;;;;;;9.57;5.90;;;15.60;99.90;;;;;;5012645;28;20474;-87
2022/06/20 04:30:22;;;;;;;8.55;5.43;;;15.60;99.90;;;;;;5013020;28;20403;-87
2022/06/20 04:32:58;;;;;;;8.40;4.97;;;15.70;99.90;;;;;;5013482;28;20885;-86
2022/06/20 04:35:27;;;;;;;7.82;5.68;;;16.00;99.90;;;;;;5012372;28;20383;-88
2022/06/20 04:37:59;;;;;;;9.43;5.63;;;15.90;99.90;;;;;;5012786;28;20430;-88
2022/06/20 04:40:33;;;;;;;9.50;5.63;;;15.80;99.90;;;;;;5012324;28;20383;-85
2022/06/20 04:43:22;;;;;;;9.40;6.13;;;15.80;99.90;;;;;;5012262;28;20388;-88
2022/06/20 04:46:09;;;;;;;9.40;5.70;;;15.80;99.90;;;;;;5012220;28;20654;-88
2022/06/20 04:48:34;;;;;;;7.20;5.15;;;15.80;99.90;;;;;;5011847;28;20445;-87
2022/06/20 04:51:05;;;;;;;8.15;5.47;;;15.90;99.90;;;;;;5013386;28;20387;-88
2022/06/20 04:53:35;;;;;;;7.18;5.13;;;15.90;99.90;;;;;;5012106;28;20406;-85
2022/06/20 04:56:04;;;;;;;9.85;5.93;;;16.00;99.90;;;;;;5010541;28;20784;-90
2022/06/20 04:58:48;;;;;;;9.13;5.40;;;16.10;99.90;;;;;;5013641;28;20867;-89
2022/06/20 05:01:15;;;;;;;7.97;5.40;;;16.20;99.90;;;;;;5012912;28;20911;-86
2022/06/20 05:03:55;;;;;;;8.52;5.38;;;16.20;99.90;;;;;;5011665;28;20422;-89
2022/06/20 05:06:28;;;;;;;9.20;5.30;;;16.10;99.90;;;;;;5011780;28;20770;-89
2022/06/20 05:09:15;;;;;;;8.43;5.35;;;16.20;99.90;;;;;;5010321;28;20380;-85
2022/06/20 05:11:45;;;;;;;10.18;5.97;;;16.20;99.90;;;;;;5010163;28;20865;-82
2022/06/20 05:14:19;;;;;;;8.82;6.05;;;16.20;99.90;;;;;;5009820;28;20399;-86
2022/06/20 05:16:49;;;;;;;10.48;6.93;;;16.10;99.90;;;;;;5002516;28;20820;-86
2022/06/20 05:19:22;;;;;;;13.25;8.52;;;15.90;99.90;;;;;;5008523;28;20423;-84
2022/06/20 05:21:53;;;;;;;14.45;8.77;;;15.80;99.90;;;;;;5010720;28;20449;-85
2022/06/20 05:24:24;;;;;;;13.93;9.95;;;15.70;99.90;;;;;;5006233;28;20402;-90
2022/06/20 05:26:53;;;;;;;14.05;9.75;;;15.60;99.90;;;;;;5003659;28;20402;-87
2022/06/20 05:29:29;;;;;;;13.15;9.70;;;15.50;99.90;;;;;;5009656;28;20430;-87
2022/06/20 05:31:56;;;;;;;15.50;10.02;;;15.30;99.90;;;;;;5008545;28;20399;-92
2022/06/20 05:34:27;;;;;;;13.75;9.50;;;15.20;99.90;;;;;;5001570;28;20429;-87
2022/06/20 05:37:13;;;;;;;15.80;9.73;;;15.00;99.90;;;;;;5002015;28;20379;-90
2022/06/20 05:39:48;;;;;;;13.90;9.65;;;14.70;99.90;;;;;;5010344;28;20945;-89
2022/06/20 05:42:16;;;;;;;15.65;10.02;;;14.50;99.90;;;;;;5007440;28;20753;-85
2022/06/20 05:44:44;;;;;;;13.93;9.80;;;14.30;99.90;;;;;;5009598;28;20518;-87
2022/06/20 05:47:23;;;;;;;19.15;11.30;;;14.20;99.90;;;;;;4998696;28;20401;-86
2022/06/20 05:50:04;;;;;;;15.18;10.05;;;14.20;99.90;;;;;;5009050;28;20466;-84
2022/06/20 05:52:31;;;;;;;18.30;10.77;;;14.30;99.90;;;;;;5008583;28;21056;-84
2022/06/20 05:55:16;;;;;;;15.00;10.25;;;14.40;99.90;;;;;;5009224;28;20387;-85
2022/06/20 05:57:45;;;;;;;15.88;11.05;;;14.40;99.90;;;;;;5008098;28;20387;-87
2022/06/20 06:00:17;;;;;;;20.90;12.50;;;14.50;99.90;;;;;;5010655;28;20453;-84
2022/06/20 06:03:20;;;;;;;20.08;12.13;;;14.50;99.90;;;;;;5009903;28;20931;-80
2022/06/20 06:05:54;;;;;;;16.75;12.65;;;14.50;99.90;;;;;;4951222;29;20794;-84
2022/06/20 06:08:46;;;;;;;17.50;10.93;;;14.30;99.90;;;;;;5000731;28;20387;-82
2022/06/20 06:11:36;;;;;;;16.80;11.77;;;14.20;99.90;;;;;;5006016;28;20382;-82
2022/06/20 06:14:26;;;;;;;16.08;12.85;;;14.10;99.90;;;;;;5009175;28;20390;-83
2022/06/20 06:17:12;;;;;;;20.75;12.20;;;14.00;99.90;;;;;;5009920;28;20392;-85
2022/06/20 06:19:59;;;;;;;16.85;12.75;;;14.00;99.90;;;;;;5007597;28;20453;-84
2022/06/20 06:22:38;;;;;;;19.67;13.38;;;14.10;99.90;;;;;;5007561;28;20876;-82
2022/06/20 06:25:18;;;;;;;15.20;12.35;;;14.20;99.90;;;;;;5008735;28;20426;-82
2022/06/20 06:27:45;;;;;;;17.17;13.15;;;14.30;99.90;;;;;;5009526;28;20391;-84
2022/06/20 06:30:20;;;;;;;15.60;11.87;;;14.50;99.90;;;;;;5012993;28;20399;-83
2022/06/20 06:32:56;;;;;;;13.10;11.18;;;14.60;99.90;;;;;;5010268;28;20385;-81
2022/06/20 06:35:28;;;;;;;16.00;11.48;;;14.70;99.90;;;;;;5011259;28;20462;-84
2022/06/20 06:38:00;;;;;;;12.63;11.23;;;14.80;99.90;;;;;;5008916;28;21587;-82
2022/06/20 06:40:46;;;;;;;14.13;10.95;;;14.90;99.90;;;;;;5010339;28;20421;-84
2022/06/20 06:43:19;;;;;;;14.15;10.90;;;15.10;99.90;;;;;;5009537;28;20470;-82
2022/06/20 06:45:46;;;;;;;10.90;9.60;;;15.20;99.90;;;;;;5007664;28;20433;-83
2022/06/20 06:48:27;;;;;;;10.75;9.32;;;15.40;99.90;;;;;;5008843;28;20379;-84
2022/06/20 06:51:10;;;;;;;11.50;9.15;;;15.30;99.90;;;;;;5007774;28;20402;-83
2022/06/20 06:53:48;;;;;;;11.15;9.93;;;15.40;99.90;;;;;;5001395;28;20402;-83
2022/06/20 06:56:22;;;;;;;12.07;9.43;;;15.50;99.90;;;;;;5001090;28;20478;-82
2022/06/20 06:59:00;;;;;;;9.93;8.35;;;15.60;99.90;;;;;;4999064;28;20396;-81
2022/06/20 07:01:40;;;;;;;10.45;8.48;;;15.80;99.90;;;;;;5006137;28;20964;-81
2022/06/20 07:04:20;;;;;;;9.57;8.57;;;15.70;99.90;;;;;;5003358;28;20506;-82
2022/06/20 07:06:57;;;;;;;10.73;7.60;;;15.60;99.90;;;;;;5005666;28;20974;-83
2022/06/20 07:09:32;;;;;;;10.65;7.60;;;15.60;99.90;;;;;;5008030;28;20383;-81
2022/06/20 07:12:23;;;;;;;9.77;7.78;;;15.40;99.90;;;;;;5006729;28;20462;-82
2022/06/20 07:15:06;;;;;;;8.25;6.97;;;15.50;99.90;;;;;;5008639;28;20383;-83
2022/06/20 07:17:39;;;;;;;7.85;6.35;;;15.80;99.90;;;;;;5008915;28;20385;-85
2022/06/20 07:20:06;;;;;;;8.55;6.60;;;16.00;99.90;;;;;;5002950;28;20416;-83
2022/06/20 07:22:31;;;;;;;7.82;6.30;;;16.10;99.90;;;;;;4992793;28;20381;-83
2022/06/20 07:24:58;;;;;;;10.37;7.13;;;16.00;99.90;;;;;;5019958;28;20413;-84
2022/06/20 07:27:48;;;;;;;8.05;6.55;;;16.00;99.90;;;;;;5032064;28;20377;-81
2022/06/20 07:30:18;;;;;;;8.52;7.13;;;15.90;99.90;;;;;;5032078;28;20435;-82
2022/06/20 07:32:52;;;;;;;10.55;7.93;;;15.80;99.90;;;;;;5032159;28;20400;-83
2022/06/20 07:35:28;;;;;;;10.77;7.78;;;15.80;99.90;;;;;;5033900;28;20468;-82
2022/06/20 07:38:03;;;;;;;10.13;7.55;;;15.70;99.90;;;;;;5020874;28;20411;-83
2022/06/20 07:40:36;;;;;;;11.43;8.40;;;15.50;99.90;;;;;;5013786;28;20391;-83
2022/06/20 07:43:30;;;;;;;11.05;9.20;;;15.50;99.90;;;;;;5017405;28;20383;-84
2022/06/20 07:46:03;;;;;;;11.32;8.50;;;15.40;99.90;;;;;;5009522;28;20413;-81
2022/06/20 07:48:34;;;;;;;11.98;8.70;;;15.30;99.90;;;;;;5017079;28;20383;-84
2022/06/20 07:51:17;;;;;;;9.38;8.20;;;15.40;99.90;;;;;;5014504;28;20406;-84
2022/06/20 07:53:57;;;;;;;9.93;7.85;;;15.50;99.90;;;;;;5012932;28;20394;-84
2022/06/20 07:56:43;;;;;;;10.93;8.30;;;15.60;99.90;;;;;;5013806;28;20437;-84
2022/06/20 07:59:33;;;;;;;10.53;7.77;;;15.60;99.90;;;;;;5012221;28;20938;-81
2022/06/20 08:02:22;;;;;;;10.93;8.20;;;15.70;99.90;;;;;;5013808;28;20398;-82
2022/06/20 08:04:52;;;;;;;9.37;7.90;;;15.70;99.90;;;;;;5012577;28;20494;-83
2022/06/20 08:07:46;;;;;;;8.32;7.53;;;15.70;99.90;;;;;;5012355;28;21065;-82
2022/06/20 08:10:35;;;;;;;10.80;7.65;;;15.90;99.90;;;;;;5005095;28;20390;-82
2022/06/20 08:13:12;;;;;;;11.95;7.25;;;15.80;99.90;;;;;;5015651;28;20387;-81
2022/06/20 08:15:46;;;;;;;8.80;7.55;;;15.90;99.90;;;;;;5031534;28;20424;-82
2022/06/20 08:18:12;;;;;;;9.65;7.72;;;16.10;99.90;;;;;;5030706;28;20385;-83
2022/06/20 08:20:43;;;;;;;8.70;7.60;;;16.10;99.90;;;;;;5030200;28;20391;-81
2022/06/20 08:23:21;;;;;;;8.27;6.63;;;16.20;99.90;;;;;;5031341;28;20373;-83
2022/06/20 08:25:54;;;;;;;8.48;6.68;;;16.40;99.90;;;;;;5013584;28;20413;-83
2022/06/20 08:28:26;;;;;;;7.50;6.10;;;16.50;99.90;;;;;;5031244;28;20382;-82
2022/06/20 08:30:59;;;;;;;10.07;6.30;;;16.40;99.90;;;;;;5029766;28;20381;-83
2022/06/20 08:33:30;;;;;;;8.07;6.60;;;16.10;99.90;;;;;;5030098;28;20409;-84
2022/06/20 08:36:10;;;;;;;10.38;6.47;;;16.00;99.90;;;;;;5032323;28;20464;-82
2022/06/20 08:38:47;;;;;;;7.18;5.95;;;15.90;99.90;;;;;;5030919;28;20811;-81
2022/06/20 08:41:28;;;;;;;8.03;5.70;;;16.00;99.90;;;;;;5032344;28;20384;-82
2022/06/20 08:44:22;;;;;;;8.05;5.03;;;16.10;99.90;;;;;;5032517;28;20381;-81
2022/06/20 08:47:01;;;;;;;6.15;4.93;;;16.10;99.90;;;;;;5031673;28;20408;-84
2022/06/20 08:49:54;;;;;;;7.00;4.90;;;16.00;99.90;;;;;;5030654;28;20394;-83
2022/06/20 08:52:41;;;;;;;7.55;4.68;;;16.20;99.90;;;;;;5031856;28;20443;-83
2022/06/20 08:55:16;;;;;;;5.60;4.43;;;16.30;99.90;;;;;;5028646;28;20394;-83
2022/06/20 08:57:51;;;;;;;7.43;4.88;;;16.30;99.90;;;;;;5030327;28;20382;-83
2022/06/20 09:00:25;;;;;;;6.97;5.03;;;16.60;99.90;;;;;;5028800;28;20941;-82
2022/06/20 09:03:06;;;;;;;6.45;4.38;;;16.50;99.90;;;;;;5028805;28;20404;-81
2022/06/20 09:05:38;;;;;;;5.63;4.50;;;16.60;99.90;;;;;;5030053;28;20409;-84
2022/06/20 09:08:16;;;;;;;6.63;4.68;;;16.60;99.90;;;;;;5030749;28;20385;-83
2022/06/20 09:11:05;;;;;;;6.47;4.35;;;16.40;99.90;;;;;;5031284;28;20447;-81
2022/06/20 09:13:46;;;;;;;6.60;4.60;;;16.20;99.90;;;;;;5026980;28;20430;-81
2022/06/20 09:16:21;;;;;;;7.28;4.80;;;16.20;99.90;;;;;;5012220;28;20375;-80
2022/06/20 09:19:10;;;;;;;6.93;4.88;;;16.20;99.90;;;;;;5011928;28;20399;-82
2022/06/20 09:22:03;;;;;;;8.93;4.97;;;16.20;99.90;;;;;;5012002;28;20379;-81
2022/06/20 09:25:10;;;;;;;7.78;4.95;;;16.30;99.90;;;;;;5010761;28;20384;-81
2022/06/20 09:27:45;;;;;;;8.45;4.72;;;16.60;99.90;;;;;;4992887;28;20379;-80
2022/06/20 09:30:17;;;;;;;5.00;4.22;;;16.70;99.90;;;;;;5012451;28;20379;-80
2022/06/20 09:33:14;;;;;;;7.13;4.72;;;16.60;99.90;;;;;;5011720;28;20427;-82
2022/06/20 09:35:54;;;;;;;6.93;5.30;;;16.70;99.90;;;;;;5010223;28;20814;-81
2022/06/20 09:38:26;;;;;;;8.65;5.60;;;16.70;99.90;;;;;;5010469;28;20410;-81
2022/06/20 09:41:20;;;;;;;9.23;5.10;;;16.70;99.90;;;;;;5011019;28;20394;-81
2022/06/20 09:44:18;;;;;;;6.85;4.93;;;16.60;99.90;;;;;;5010126;28;20385;-82
2022/06/20 09:47:18;;;;;;;7.03;4.63;;;16.50;99.90;;;;;;5011111;28;20403;-82
2022/06/20 09:50:20;;;;;;;8.38;5.18;;;16.50;99.90;;;;;;5009947;28;20391;-83
2022/06/20 09:52:55;;;;;;;8.20;5.30;;;16.40;99.90;;;;;;5011149;28;20385;-82
2022/06/20 09:55:37;;;;;;;7.90;4.60;;;16.30;99.90;;;;;;5012579;28;20459;-83
2022/06/20 09:58:22;;;;;;;7.88;4.97;;;16.10;99.90;;;;;;5014904;28;20434;-83
2022/06/20 10:00:47;;;;;;;7.05;5.28;;;16.10;99.90;;;;;;5013978;28;20415;-83
2022/06/20 10:03:37;;;;;;;6.80;4.83;;;16.00;99.90;;;;;;5012108;28;20994;-83
2022/06/20 10:06:21;;;;;;;5.57;4.70;;;15.90;99.90;;;;;;5015510;28;20414;-83
2022/06/20 10:08:56;;;;;;;6.88;5.00;;;15.80;99.90;;;;;;5017671;28;20927;-84
2022/06/20 10:11:29;;;;;;;7.70;5.13;;;15.90;99.90;;;;;;5011619;28;20391;-86
2022/06/20 10:14:26;;;;;;;7.93;5.53;;;15.90;99.90;;;;;;5027888;28;20378;-81
2022/06/20 10:17:12;;;;;;;6.72;4.75;;;15.90;99.90;;;;;;5036185;28;20898;-81
2022/06/20 10:20:18;;;;;;;7.60;5.35;;;16.00;99.90;;;;;;5035144;28;20393;-81
2022/06/20 10:22:49;;;;;;;7.10;5.30;;;16.10;99.90;;;;;;5030877;28;20389;-80
2022/06/20 10:25:45;;;;;;;9.25;5.68;;;16.10;99.90;;;;;;5032223;28;20424;-81
2022/06/20 10:28:32;;;;;;;8.63;5.68;;;16.10;99.90;;;;;;5027754;28;20404;-81
2022/06/20 10:31:08;;;;;;;8.27;6.68;;;16.20;99.90;;;;;;5009050;28;20463;-81
2022/06/20 10:34:03;;;;;;;8.65;6.63;;;16.30;99.90;;;;;;4998728;28;20526;-82
2022/06/20 10:36:59;;;;;;;8.85;6.18;;;16.40;99.90;;;;;;5008512;28;20409;-83
2022/06/20 10:39:59;;;;;;;8.80;6.60;;;16.40;99.90;;;;;;5007680;28;20513;-81
2022/06/20 10:43:00;;;;;;;7.57;6.35;;;16.60;99.90;;;;;;5009114;28;20455;-82
2022/06/20 10:45:46;;;;;;;7.37;5.87;;;16.50;99.90;;;;;;5006545;28;20415;-82
2022/06/20 10:48:41;;;;;;;7.88;6.35;;;16.60;99.90;;;;;;5008688;28;20456;-81
2022/06/20 10:51:30;;;;;;;5.40;4.60;;;16.60;99.90;;;;;;5009627;28;20391;-81
2022/06/20 10:54:47;;;;;;;6.88;4.55;;;16.40;99.90;;;;;;5010312;28;20395;-82
2022/06/20 10:57:23;;;;;;;4.50;3.20;;;16.30;99.90;;;;;;4975873;28;20394;-81
2022/06/20 11:00:11;;;;;;;2.83;2.17;;;16.10;99.90;;;;;;5006450;28;20379;-80
2022/06/20 11:02:56;;;;;;;3.58;2.17;;;15.90;99.90;;;;;;5007007;28;20394;-82
2022/06/20 11:05:50;;;;;;;4.57;2.95;;;16.00;99.90;;;;;;5007822;28;20403;-83
2022/06/20 11:08:43;;;;;;;2.35;1.90;;;15.90;99.90;;;;;;5008864;28;20383;-83
2022/06/20 11:11:46;;;;;;;3.00;1.95;;;16.10;99.90;;;;;;5007482;28;20462;-83
2022/06/20 11:14:30;;;;;;;3.15;2.50;;;16.20;99.90;;;;;;5005390;28;20394;-84
2022/06/20 11:17:35;;;;;;;3.33;2.53;;;16.40;99.90;;;;;;5010106;28;20371;-82
2022/06/20 11:20:42;;;;;;;3.87;2.40;;;16.50;99.90;;;;;;5002720;28;20410;-82
2022/06/20 11:23:16;;;;;;;4.13;2.13;;;16.70;99.90;;;;;;4999001;28;20399;-84
2022/06/20 11:26:00;;;;;;;3.53;2.20;;;17.00;99.90;;;;;;5013096;28;20486;-83
2022/06/20 11:28:53;;;;;;;2.97;2.35;;;17.20;99.90;;;;;;5006352;28;20429;-82
2022/06/20 11:31:56;;;;;;;3.70;2.78;;;17.50;99.90;;;;;;5005070;28;21053;-83
2022/06/20 11:34:44;;;;;;;3.63;2.57;;;17.70;99.90;;;;;;5008726;28;20414;-83
2022/06/20 11:37:33;;;;;;;3.65;2.78;;;17.90;99.90;;;;;;5006581;28;20467;-83
2022/06/20 11:40:18;;;;;;;4.80;2.80;;;18.10;99.90;;;;;;5004180;28;20391;-83
2022/06/20 11:42:59;;;;;;;4.25;2.60;;;18.10;99.90;;;;;;5005250;28;20481;-82
2022/06/20 11:45:53;;;;;;;3.97;2.78;;;18.20;99.90;;;;;;5007613;28;20820;-82
2022/06/20 11:48:50;;;;;;;3.08;2.78;;;18.20;99.90;;;;;;5003872;28;20402;-82
2022/06/20 11:51:34;;;;;;;4.28;2.70;;;18.30;99.90;;;;;;5009020;28;20394;-82
2022/06/20 11:54:28;;;;;;;3.22;2.33;;;18.50;99.90;;;;;;5009280;28;20487;-81
2022/06/20 11:57:20;;;;;;;3.45;2.08;;;18.40;99.90;;;;;;5004355;28;20408;-83
2022/06/20 12:00:42;;;;;;;4.07;2.30;;;18.30;99.90;;;;;;5007753;28;20390;-82
2022/06/20 12:03:43;;;;;;;3.20;2.13;;;18.20;99.90;;;;;;4967571;28;20406;-82
2022/06/20 12:06:31;;;;;;;2.75;1.70;;;18.00;99.90;;;;;;5004188;28;20415;-82
2022/06/20 12:09:04;;;;;;;3.15;1.75;;;17.90;99.90;;;;;;5011345;28;20430;-84
2022/06/20 12:11:30;;;;;;;2.63;1.73;;;17.70;99.90;;;;;;5009901;28;20383;-83
2022/06/20 12:14:36;;;;;;;2.13;1.75;;;17.60;99.90;;;;;;5012866;28;20413;-82
2022/06/20 12:17:27;;;;;;;3.13;2.05;;;17.40;99.90;;;;;;5007968;28;20896;-82
2022/06/20 12:25:53;;;;;;;2.53;2.30;;;17.70;99.90;;;;;;5010576;28;20438;-81
2022/06/20 12:28:20;;;;;;;3.00;2.28;;;17.70;99.90;;;;;;5015067;28;20383;-82
2022/06/20 12:30:57;;;;;;;2.67;2.08;;;17.70;99.90;;;;;;5009466;28;20727;-81
2022/06/20 12:33:23;;;;;;;3.00;2.10;;;17.60;99.90;;;;;;5012820;28;20402;-83
2022/06/20 12:36:00;;;;;;;3.17;2.10;;;17.60;99.90;;;;;;5012976;28;20464;-82
2022/06/20 12:38:38;;;;;;;3.90;2.40;;;17.60;99.90;;;;;;5009928;28;20502;-83
2022/06/20 12:41:11;;;;;;;2.45;2.20;;;17.70;99.90;;;;;;5015022;28;20403;-82
2022/06/20 12:44:04;;;;;;;3.42;2.38;;;17.70;99.90;;;;;;5007891;28;20391;-82
2022/06/20 12:46:50;;;;;;;2.80;2.40;;;17.80;99.90;;;;;;5014008;28;20438;-83
2022/06/20 12:49:22;;;;;;;2.80;2.20;;;17.70;99.90;;;;;;5013318;28;20411;-82
2022/06/20 12:52:00;;;;;;;4.33;2.87;;;17.40;99.90;;;;;;5014597;28;20391;-82
2022/06/20 12:54:47;;;;;;;3.83;2.50;;;17.30;99.90;;;;;;5013404;28;20394;-82
2022/06/20 12:57:28;;;;;;;3.90;3.00;;;17.20;99.90;;;;;;5014103;28;20421;-82
2022/06/20 13:00:11;;;;;;;3.78;3.20;;;17.20;99.90;;;;;;5016302;28;20371;-82
2022/06/20 13:02:48;;;;;;;4.13;2.95;;;17.20;99.90;;;;;;5013821;28;20477;-81
2022/06/20 13:05:26;;;;;;;4.57;3.80;;;17.20;99.90;;;;;;5013815;28;20403;-82
2022/06/20 13:08:29;;;;;;;3.65;3.17;;;17.40;99.90;;;;;;5016033;28;20433;-81
2022/06/20 13:11:13;;;;;;;4.97;3.63;;;17.50;99.90;;;;;;5016621;28;20384;-82
2022/06/20 13:14:08;;;;;;;3.75;3.35;;;17.80;99.90;;;;;;5023321;28;20574;-81
2022/06/20 13:16:49;;;;;;;4.47;3.85;;;18.10;99.90;;;;;;5024925;28;20400;-82
2022/06/20 13:19:31;;;;;;;5.25;4.13;;;18.40;99.90;;;;;;5035332;28;20394;-83
2022/06/20 13:22:08;;;;;;;4.20;3.80;;;18.70;99.90;;;;;;5037755;28;20401;-82
2022/06/20 13:24:57;;;;;;;6.88;4.22;;;18.80;99.90;;;;;;5036023;28;20378;-82
2022/06/20 13:27:42;;;;;;;5.57;4.97;;;19.00;99.90;;;;;;5031120;28;20429;-81
2022/06/20 13:30:34;;;;;;;6.15;4.38;;;19.10;99.90;;;;;;5037293;28;20373;-81
2022/06/20 13:33:40;;;;;;;8.30;5.00;;;19.30;99.90;;;;;;5006223;28;20386;-82
2022/06/20 13:36:26;;;;;;;6.25;5.22;;;19.50;99.90;;;;;;5031055;28;20398;-83
2022/06/20 13:38:57;;;;;;;5.90;5.27;;;19.50;99.90;;;;;;5035305;28;20770;-82
2022/06/20 13:41:44;;;;;;;6.53;5.60;;;19.50;99.90;;;;;;5033519;28;20389;-82
2022/06/20 13:44:24;;;;;;;6.22;5.63;;;19.30;99.90;;;;;;5036264;28;20960;-81
2022/06/20 13:47:01;;;;;;;8.07;6.20;;;19.20;99.90;;;;;;5036700;28;20432;-81
2022/06/20 13:49:30;;;;;;;7.63;6.57;;;19.00;99.90;;;;;;5034145;28;20401;-81
2022/06/20 13:52:37;;;;;;;6.57;5.82;;;18.70;99.90;;;;;;5034293;28;20485;-82
2022/06/20 13:55:16;;;;;;;6.57;5.90;;;18.90;99.90;;;;;;4974439;28;20398;-81
2022/06/20 13:57:52;;;;;;;9.95;5.40;;;19.00;99.90;;;;;;5028703;28;20439;-83
2022/06/20 14:00:23;;;;;;;7.88;5.53;;;19.10;99.90;;;;;;5032206;28;20385;-83